54.0°F
Current conditions from King Hill
Updated every 5 minutes
 
  Sunday April 20, 2014

Station Historical Data
Daily Summary for July 25, 2012 Units:  Metric    English   Both
« Previous Day
Next Day »
Daily Weekly Monthly Yearly Custom
  High: Low: Average:
Temperature: 24 °C 13.4 °C 17.9 °C
Dew Point: 15.4 °C 11.2 °C 12.8 °C
Humidity: 90% 47% 73%
Wind Speed: 9.7km/h 0km/h 3.9km/h
Wind Gust: 27.4km/h - -
Wind- - West
Pressure: 1011.7 hPa 1006.3 hPa -
Precipitation: 0 mm    
Historical Graphs
 
 
Tabular Data for July 25, 2012
Time Temperature Dew Point Pressure Wind Wind Speed Wind Gust Humidity Daily Rainfall
00:04 17 °C 12.7 °C 1007 hPa Calm   11.3 km/h 76% 0 mm
00:09 17.1 °C 12.8 °C 1007 hPa Calm   17.7 km/h 76% 0 mm
00:14 17.1 °C 12.8 °C 1007 hPa NNW 1.6 km/h 17.7 km/h 76% 0 mm
00:19 17.1 °C 12.8 °C 1007 hPa Calm   9.7 km/h 76% 0 mm
00:24 17.1 °C 12.7 °C 1007 hPa Calm   8 km/h 75% 0 mm
00:29 17.1 °C 12.6 °C 1007 hPa Calm   6.4 km/h 75% 0 mm
00:34 17 °C 12.7 °C 1007 hPa Calm   8 km/h 76% 0 mm
00:39 16.9 °C 12.6 °C 1007.3 hPa Calm   8 km/h 76% 0 mm
00:44 16.8 °C 12.5 °C 1007 hPa NW 4.8 km/h 22.5 km/h 76% 0 mm
00:49 16.7 °C 12.6 °C 1007 hPa NW 1.6 km/h 22.5 km/h 77% 0 mm
00:54 16.5 °C 12.7 °C 1007 hPa Calm   11.3 km/h 78% 0 mm
00:59 16.3 °C 12.4 °C 1007 hPa Calm   8 km/h 78% 0 mm
01:04 16.1 °C 12.4 °C 1007 hPa Calm   6.4 km/h 79% 0 mm
01:09 16 °C 12.4 °C 1007.3 hPa Calm   6.4 km/h 79% 0 mm
01:14 15.9 °C 12.4 °C 1007.3 hPa Calm   4.8 km/h 80% 0 mm
01:19 15.8 °C 12.3 °C 1007.3 hPa Calm   12.9 km/h 80% 0 mm
01:24 15.7 °C 12.4 °C 1007.3 hPa Calm   12.9 km/h 81% 0 mm
01:29 15.5 °C 12.4 °C 1007.3 hPa Calm     82% 0 mm
01:34 15.3 °C 12.3 °C 1007.3 hPa Calm     82% 0 mm
01:39 15.3 °C 12.2 °C 1007.3 hPa Calm   4.8 km/h 82% 0 mm
01:44 15.2 °C 12.3 °C 1007.3 hPa Calm   4.8 km/h 83% 0 mm
01:49 15.2 °C 12.3 °C 1007.3 hPa Calm   4.8 km/h 83% 0 mm
01:54 15 °C 12.3 °C 1007.3 hPa Calm   4.8 km/h 84% 0 mm
01:59 15 °C 12.3 °C 1007.7 hPa Calm   4.8 km/h 84% 0 mm
02:04 15 °C 12.5 °C 1007.3 hPa Calm   9.7 km/h 85% 0 mm
02:09 15 °C 12.5 °C 1007.7 hPa Calm   9.7 km/h 85% 0 mm
02:14 14.9 °C 12.4 °C 1007.7 hPa Calm   3.2 km/h 85% 0 mm
02:19 14.8 °C 12.3 °C 1007.7 hPa Calm   1.6 km/h 85% 0 mm
02:24 14.7 °C 12.2 °C 1007.7 hPa Calm   4.8 km/h 85% 0 mm
02:29 14.7 °C 12.4 °C 1007.7 hPa Calm   9.7 km/h 86% 0 mm
02:34 14.7 °C 12.3 °C 1007.7 hPa Calm   9.7 km/h 86% 0 mm
02:39 14.6 °C 12.3 °C 1007.7 hPa Calm   1.6 km/h 86% 0 mm
02:44 14.5 °C 12.2 °C 1007.7 hPa Calm   1.6 km/h 86% 0 mm
02:49 14.5 °C 12.2 °C 1007.7 hPa Calm   3.2 km/h 86% 0 mm
02:54 14.6 °C 12.4 °C 1007.7 hPa Calm   4.8 km/h 87% 0 mm
02:59 14.6 °C 12.5 °C 1007.7 hPa Calm   4.8 km/h 87% 0 mm
03:04 14.6 °C 12.5 °C 1007.7 hPa Calm   3.2 km/h 87% 0 mm
03:09 14.5 °C 12.4 °C 1007.7 hPa Calm   3.2 km/h 87% 0 mm
03:14 14.4 °C 12.3 °C 1007.7 hPa Calm     87% 0 mm
03:19 14.3 °C 12.2 °C 1008 hPa Calm     87% 0 mm
03:24 14.2 °C 12.1 °C 1007.7 hPa Calm     87% 0 mm
03:29 14.2 °C 12.3 °C 1008 hPa Calm   9.7 km/h 88% 0 mm
03:34 14.2 °C 12.2 °C 1007.7 hPa Calm   9.7 km/h 88% 0 mm
03:39 14.1 °C 12.2 °C 1008 hPa Calm     88% 0 mm
03:44 14 °C 12.1 °C 1008 hPa Calm   3.2 km/h 88% 0 mm
03:49 14 °C 12.1 °C 1008 hPa Calm   3.2 km/h 88% 0 mm
03:54 14 °C 12.1 °C 1008 hPa Calm   3.2 km/h 88% 0 mm
03:59 14 °C 12.1 °C 1008 hPa Calm     88% 0 mm
04:04 13.9 °C 11.9 °C 1008 hPa Calm     88% 0 mm
04:09 13.8 °C 11.9 °C 1008 hPa Calm   4.8 km/h 88% 0 mm
04:14 13.8 °C 11.8 °C 1008 hPa Calm   4.8 km/h 88% 0 mm
04:19 13.8 °C 11.8 °C 1008 hPa Calm   1.6 km/h 88% 0 mm
04:24 13.8 °C 11.8 °C 1008.4 hPa Calm   1.6 km/h 88% 0 mm
04:29 13.7 °C 11.8 °C 1008.4 hPa Calm   1.6 km/h 88% 0 mm
04:34 13.7 °C 11.8 °C 1008.4 hPa Calm   3.2 km/h 88% 0 mm
04:39 13.8 °C 11.8 °C 1008.4 hPa Calm   6.4 km/h 88% 0 mm
04:44 13.8 °C 11.7 °C 1008.7 hPa Calm   6.4 km/h 87% 0 mm
04:49 13.8 °C 11.7 °C 1008.7 hPa Calm   1.6 km/h 87% 0 mm
04:54 13.8 °C 11.7 °C 1008.7 hPa Calm   1.6 km/h 87% 0 mm
04:59 13.8 °C 11.7 °C 1008.7 hPa Calm   1.6 km/h 87% 0 mm
05:04 13.8 °C 11.7 °C 1008.7 hPa Calm   1.6 km/h 87% 0 mm
05:09 13.8 °C 11.7 °C 1009 hPa Calm     87% 0 mm
05:15 13.8 °C 11.7 °C 1009 hPa Calm   6.4 km/h 87% 0 mm
05:24 13.8 °C 11.7 °C 1009 hPa Calm   4.8 km/h 87% 0 mm
05:29 13.7 °C 11.6 °C 1009 hPa Calm     87% 0 mm
05:34 13.7 °C 11.7 °C 1009 hPa Calm   4.8 km/h 88% 0 mm
05:39 13.6 °C 11.7 °C 1009 hPa Calm   4.8 km/h 88% 0 mm
05:44 13.6 °C 11.7 °C 1009 hPa Calm   1.6 km/h 88% 0 mm
05:49 13.6 °C 11.8 °C 1009 hPa Calm   6.4 km/h 89% 0 mm
05:54 13.6 °C 11.8 °C 1009.4 hPa Calm   6.4 km/h 89% 0 mm
05:59 13.5 °C 11.6 °C 1009.4 hPa Calm   1.6 km/h 88% 0 mm
06:04 13.4 °C 11.7 °C 1009.4 hPa Calm   1.6 km/h 89% 0 mm
06:09 13.4 °C 11.7 °C 1009.4 hPa Calm     89% 0 mm
06:14 13.5 °C 11.7 °C 1009.4 hPa Calm     89% 0 mm
06:19 13.5 °C 11.7 °C 1009.4 hPa Calm   1.6 km/h 89% 0 mm
06:24 13.7 °C 12.1 °C 1009.4 hPa Calm   1.6 km/h 90% 0 mm
06:29 13.9 °C 12.3 °C 1009.4 hPa Calm   3.2 km/h 90% 0 mm
06:34 14.1 °C 12.5 °C 1009.4 hPa Calm   3.2 km/h 90% 0 mm
06:39 14.2 °C 12.6 °C 1009.7 hPa Calm   6.4 km/h 90% 0 mm
06:44 14.2 °C 12.6 °C 1009.7 hPa NW 1.6 km/h 6.4 km/h 90% 0 mm
06:49 14.3 °C 12.5 °C 1009.7 hPa NW 1.6 km/h 6.4 km/h 89% 0 mm
06:54 14.3 °C 12.5 °C 1009.7 hPa Calm   6.4 km/h 89% 0 mm
06:59 14.3 °C 12.6 °C 1009.7 hPa Calm   4.8 km/h 89% 0 mm
07:04 14.5 °C 12.7 °C 1009.7 hPa Calm   11.3 km/h 89% 0 mm
07:09 14.8 °C 13.2 °C 1009.7 hPa Calm   11.3 km/h 90% 0 mm
07:14 15 °C 13.4 °C 1009.7 hPa Calm   3.2 km/h 90% 0 mm
07:19 15.1 °C 13.1 °C 1009.7 hPa Calm   6.4 km/h 88% 0 mm
07:24 15.2 °C 13.1 °C 1009.7 hPa Calm   6.4 km/h 87% 0 mm
07:29 15.3 °C 13.2 °C 1009.7 hPa Calm   12.9 km/h 87% 0 mm
07:34 15.5 °C 13.3 °C 1009.7 hPa Calm   12.9 km/h 87% 0 mm
07:39 15.6 °C 13.2 °C 1009.7 hPa Calm   8 km/h 86% 0 mm
07:44 15.6 °C 13.1 °C 1010 hPa Calm   11.3 km/h 85% 0 mm
07:49 15.7 °C 13.3 °C 1010 hPa Calm   11.3 km/h 86% 0 mm
07:54 15.8 °C 13.3 °C 1010 hPa Calm   11.3 km/h 85% 0 mm
07:59 15.9 °C 13.4 °C 1010 hPa Calm   11.3 km/h 85% 0 mm
08:04 16.3 °C 13.8 °C 1010 hPa NW 1.6 km/h 12.9 km/h 85% 0 mm
08:09 16.9 °C 14 °C 1010 hPa NW 4.8 km/h 17.7 km/h 83% 0 mm
08:14 17.1 °C 13.4 °C 1010.4 hPa NW 1.6 km/h 17.7 km/h 79% 0 mm
08:20 16.9 °C 13.2 °C 1010 hPa Calm   11.3 km/h 79% 0 mm
08:29 17.3 °C 13.1 °C 1010 hPa NNE 1.6 km/h 17.7 km/h 76% 0 mm
08:34 17.3 °C 13 °C 1010 hPa Calm   17.7 km/h 76% 0 mm
08:39 17.1 °C 12.7 °C 1010.4 hPa NNE 3.2 km/h 11.3 km/h 75% 0 mm
08:44 17.3 °C 12.8 °C 1010 hPa NE 4.8 km/h 16.1 km/h 75% 0 mm
08:49 17.7 °C 13.2 °C 1010 hPa Calm   16.1 km/h 75% 0 mm
08:54 17.7 °C 13.1 °C 1010 hPa Calm   12.9 km/h 74% 0 mm
08:59 17.8 °C 13.3 °C 1010 hPa Calm   11.3 km/h 75% 0 mm
09:04 17.9 °C 13 °C 1010 hPa Calm   6.4 km/h 73% 0 mm
09:09 17.7 °C 12.8 °C 1010 hPa NW 3.2 km/h 12.9 km/h 73% 0 mm
09:14 17.3 °C 12.8 °C 1010 hPa Calm   12.9 km/h 75% 0 mm
09:19 17.4 °C 12.8 °C 1010 hPa WNW 6.4 km/h 12.9 km/h 74% 0 mm
09:24 17.8 °C 13.7 °C 1010.4 hPa Calm   12.9 km/h 77% 0 mm
09:29 18.5 °C 13.6 °C 1010.4 hPa Calm   8 km/h 73% 0 mm
09:35 18.9 °C 12.9 °C 1010 hPa Calm   8 km/h 68% 0 mm
09:40 19.2 °C 13.2 °C 1010 hPa NNW 1.6 km/h 11.3 km/h 68% 0 mm
09:49 19.7 °C 12.7 °C 1010 hPa North 1.6 km/h 11.3 km/h 64% 0 mm
09:55 19.9 °C 12.7 °C 1010.4 hPa NNE 6.4 km/h 17.7 km/h 63% 0 mm
10:04 19.6 °C 12.8 °C 1010 hPa NNE 3.2 km/h 14.5 km/h 65% 0 mm
10:09 20.1 °C 13.7 °C 1010 hPa Calm   14.5 km/h 67% 0 mm
10:14 20.4 °C 13.7 °C 1010 hPa NE 4.8 km/h 16.1 km/h 65% 0 mm
10:19 20.5 °C 13.9 °C 1010 hPa Calm   16.1 km/h 66% 0 mm
10:24 20.4 °C 14.1 °C 1010.4 hPa Calm   12.9 km/h 67% 0 mm
10:29 20.3 °C 13.5 °C 1010.4 hPa NNW 3.2 km/h 11.3 km/h 65% 0 mm
10:34 19.8 °C 13.2 °C 1010.4 hPa WNW 6.4 km/h 22.5 km/h 66% 0 mm
10:39 18.8 °C 12.6 °C 1010.4 hPa NW 4.8 km/h 22.5 km/h 67% 0 mm
10:44 18.2 °C 12.9 °C 1010.4 hPa WNW 1.6 km/h 20.9 km/h 71% 0 mm
10:49 18.2 °C 12.6 °C 1010.4 hPa WNW 4.8 km/h 12.9 km/h 70% 0 mm
10:54 18.2 °C 13.3 °C 1010.4 hPa Calm   11.3 km/h 73% 0 mm
10:59 18.6 °C 13.3 °C 1010.7 hPa NW 1.6 km/h 8 km/h 71% 0 mm
11:04 19.3 °C 14.2 °C 1011.1 hPa Calm   12.9 km/h 72% 0 mm
11:09 19.6 °C 13.5 °C 1011.4 hPa NW 4.8 km/h 12.9 km/h 68% 0 mm
11:14 19.4 °C 12.9 °C 1011.4 hPa WNW 9.7 km/h 16.1 km/h 66% 0 mm
11:19 19.6 °C 13.9 °C 1011.7 hPa WNW 3.2 km/h 19.3 km/h 70% 0 mm
11:24 19.2 °C 12.9 °C 1011.4 hPa WNW 9.7 km/h 19.3 km/h 67% 0 mm
11:29 19.3 °C 14.2 °C 1011.1 hPa Calm   17.7 km/h 72% 0 mm
11:34 20 °C 14.4 °C 1011.1 hPa WNW 4.8 km/h 16.1 km/h 70% 0 mm
11:39 19.7 °C 13.4 °C 1010.7 hPa Calm   16.1 km/h 67% 0 mm
11:44 20.1 °C 14.8 °C 1010.7 hPa Calm   16.1 km/h 72% 0 mm
11:49 20.5 °C 13.2 °C 1010.7 hPa NW 6.4 km/h 12.9 km/h 63% 0 mm
11:54 20.5 °C 14.4 °C 1010.7 hPa NW 4.8 km/h 17.7 km/h 68% 0 mm
11:59 20.6 °C 14.1 °C 1010.7 hPa Calm   17.7 km/h 66% 0 mm
12:04 20.4 °C 13.7 °C 1010.7 hPa NW 9.7 km/h 16.1 km/h 65% 0 mm
12:09 20.4 °C 15 °C 1010.7 hPa NW 1.6 km/h 16.1 km/h 71% 0 mm
12:14 20.7 °C 13.4 °C 1010.7 hPa NW 1.6 km/h 14.5 km/h 63% 0 mm
12:19 20.8 °C 13.2 °C 1010.7 hPa WNW 4.8 km/h 14.5 km/h 62% 0 mm
12:24 20.8 °C 13.9 °C 1010.7 hPa NNE 3.2 km/h 14.5 km/h 65% 0 mm
12:29 20.6 °C 13.5 °C 1010.7 hPa WNW 3.2 km/h 12.9 km/h 64% 0 mm
12:34 20.6 °C 14.7 °C 1010.7 hPa NW 1.6 km/h 14.5 km/h 69% 0 mm
12:39 20.7 °C 13.4 °C 1010.4 hPa Calm   14.5 km/h 63% 0 mm
12:44 20.9 °C 14.6 °C 1010.7 hPa NW 3.2 km/h 12.9 km/h 67% 0 mm
12:49 21.3 °C 14 °C 1010.4 hPa NW 6.4 km/h 12.9 km/h 63% 0 mm
12:54 21.4 °C 14.6 °C 1010.4 hPa NNW 3.2 km/h 12.9 km/h 65% 0 mm
12:59 21.4 °C 13.6 °C 1010.7 hPa WNW 9.7 km/h 25.7 km/h 61% 0 mm
13:04 21.6 °C 14.5 °C 1010.4 hPa WNW 8 km/h 25.7 km/h 64% 0 mm
13:09 21.8 °C 14.2 °C 1010.7 hPa WNW 6.4 km/h 22.5 km/h 62% 0 mm
13:14 22.1 °C 14.9 °C 1010.7 hPa NNE 1.6 km/h 14.5 km/h 64% 0 mm
13:19 22.3 °C 14.2 °C 1010.7 hPa NW 6.4 km/h 14.5 km/h 60% 0 mm
13:25 22.4 °C 14 °C 1010.7 hPa WNW 1.6 km/h 11.3 km/h 59% 0 mm
13:34 22.2 °C 14.8 °C 1010.4 hPa NW 1.6 km/h 14.5 km/h 63% 0 mm
13:39 22.3 °C 13.1 °C 1010.4 hPa NW 6.4 km/h 27.4 km/h 56% 0 mm
13:44 22 °C 13.9 °C 1010.4 hPa NW 3.2 km/h 27.4 km/h 60% 0 mm
13:49 22.3 °C 13.3 °C 1010.4 hPa NW 3.2 km/h 24.1 km/h 57% 0 mm
13:54 22.4 °C 13.8 °C 1010 hPa WNW 3.2 km/h 12.9 km/h 58% 0 mm
13:59 22.3 °C 13.3 °C 1010 hPa Calm   14.5 km/h 57% 0 mm
14:04 22.3 °C 13.6 °C 1010 hPa WNW 9.7 km/h 17.7 km/h 58% 0 mm
14:09 22.1 °C 11.5 °C 1010 hPa NW 3.2 km/h 17.7 km/h 51% 0 mm
14:14 22.3 °C 13.6 °C 1010 hPa NW 1.6 km/h 14.5 km/h 58% 0 mm
14:19 22.6 °C 12.6 °C 1010 hPa NW 4.8 km/h 12.9 km/h 53% 0 mm
14:24 22.4 °C 13.4 °C 1009.7 hPa NW 4.8 km/h 19.3 km/h 57% 0 mm
14:29 22.4 °C 12.9 °C 1009.7 hPa WNW 4.8 km/h 19.3 km/h 55% 0 mm
14:34 22.6 °C 13.9 °C 1009.7 hPa WNW 1.6 km/h 11.3 km/h 58% 0 mm
14:39 22.6 °C 11.9 °C 1009.7 hPa WNW 6.4 km/h 12.9 km/h 51% 0 mm
14:44 22.6 °C 14.2 °C 1009.7 hPa NW 1.6 km/h 14.5 km/h 59% 0 mm
14:49 22.6 °C 12.8 °C 1009.7 hPa NW 3.2 km/h 14.5 km/h 54% 0 mm
14:54 22.9 °C 13.4 °C 1009.7 hPa NW 3.2 km/h 16.1 km/h 55% 0 mm
14:59 23 °C 13.2 °C 1009.7 hPa WNW 3.2 km/h 16.1 km/h 54% 0 mm
15:04 23.3 °C 13.2 °C 1009.7 hPa NW 1.6 km/h 11.3 km/h 53% 0 mm
15:09 23.6 °C 13.7 °C 1009.7 hPa NNE 1.6 km/h 9.7 km/h 54% 0 mm
15:14 23.7 °C 14.7 °C 1009.7 hPa NNW 1.6 km/h 12.9 km/h 57% 0 mm
15:19 23.8 °C 14.3 °C 1009.7 hPa WNW 1.6 km/h 14.5 km/h 55% 0 mm
15:24 23.8 °C 14 °C 1009.4 hPa NW 4.8 km/h 17.7 km/h 54% 0 mm
15:29 23.6 °C 12.9 °C 1009.4 hPa Calm   17.7 km/h 51% 0 mm
15:34 23.6 °C 14.8 °C 1009.4 hPa NE 3.2 km/h 11.3 km/h 58% 0 mm
15:39 23.4 °C 13.3 °C 1009 hPa NW 4.8 km/h 11.3 km/h 53% 0 mm
15:44 23.3 °C 13.7 °C 1009.4 hPa West 3.2 km/h 9.7 km/h 55% 0 mm
15:49 23.4 °C 14.4 °C 1009.4 hPa WNW 8 km/h 12.9 km/h 57% 0 mm
15:54 23.4 °C 13.3 °C 1009.4 hPa WNW 4.8 km/h 12.9 km/h 53% 0 mm
15:59 23.6 °C 14.8 °C 1009 hPa NW 1.6 km/h 11.3 km/h 58% 0 mm
16:04 23.7 °C 13.6 °C 1009 hPa WNW 1.6 km/h 8 km/h 53% 0 mm
16:09 23.7 °C 12.9 °C 1009 hPa NNE 1.6 km/h 9.7 km/h 51% 0 mm
16:14 23.7 °C 13.6 °C 1009 hPa NW 4.8 km/h 12.9 km/h 53% 0 mm
16:19 23.7 °C 13 °C 1009 hPa NW 1.6 km/h 12.9 km/h 51% 0 mm
16:24 23.7 °C 13.9 °C 1009 hPa Calm   8 km/h 54% 0 mm
16:29 23.9 °C 12.9 °C 1009 hPa WNW 4.8 km/h 11.3 km/h 50% 0 mm
16:34 24 °C 13.3 °C 1009 hPa NW 3.2 km/h 11.3 km/h 51% 0 mm
16:39 23.9 °C 12.3 °C 1009 hPa NNE 3.2 km/h 11.3 km/h 48% 0 mm
16:44 23.8 °C 13.3 °C 1008.7 hPa NW 3.2 km/h 11.3 km/h 52% 0 mm
16:49 23.5 °C 13.1 °C 1008.7 hPa Calm   11.3 km/h 52% 0 mm
16:54 23.3 °C 12.6 °C 1008.7 hPa Calm   6.4 km/h 51% 0 mm
16:59 23.3 °C 13.4 °C 1008.7 hPa Calm   8 km/h 54% 0 mm
17:04 23.3 °C 12.1 °C 1008.7 hPa North 3.2 km/h 9.7 km/h 49% 0 mm
17:09 23.3 °C 12.3 °C 1008.7 hPa Calm   9.7 km/h 50% 0 mm
17:14 23.4 °C 13 °C 1008.7 hPa Calm   8 km/h 52% 0 mm
17:19 23.3 °C 11.3 °C 1008.7 hPa Calm   12.9 km/h 47% 0 mm
17:25 23.1 °C 13.3 °C 1008.7 hPa Calm   12.9 km/h 54% 0 mm
17:34 22.9 °C 12.9 °C 1008.7 hPa Calm   4.8 km/h 53% 0 mm
17:39 22.8 °C 12.8 °C 1008.7 hPa Calm   4.8 km/h 53% 0 mm
17:44 22.6 °C 11.6 °C 1008.7 hPa Calm   4.8 km/h 50% 0 mm
17:49 22.3 °C 12.6 °C 1008.7 hPa Calm   4.8 km/h 54% 0 mm
17:54 22.1 °C 12.7 °C 1008.4 hPa Calm     55% 0 mm
17:59 22.1 °C 13.4 °C 1008.4 hPa Calm     58% 0 mm
18:04 22.1 °C 13.2 °C 1008.4 hPa Calm     57% 0 mm
18:09 22 °C 13.9 °C 1008 hPa Calm     60% 0 mm
18:14 21.9 °C 14.3 °C 1008 hPa Calm     62% 0 mm
18:19 21.9 °C 14.1 °C 1008 hPa Calm     61% 0 mm
18:24 21.8 °C 13.4 °C 1008 hPa Calm   1.6 km/h 59% 0 mm
18:29 21.7 °C 13.6 °C 1008.4 hPa Calm   1.6 km/h 60% 0 mm
18:34 21.6 °C 14.3 °C 1008.4 hPa Calm     63% 0 mm
18:39 21.6 °C 15.4 °C 1008.4 hPa Calm     68% 0 mm
18:44 21.3 °C 14.7 °C 1008 hPa Calm     66% 0 mm
18:49 21.1 °C 14.4 °C 1008 hPa Calm     66% 0 mm
18:55 20.7 °C 14.8 °C 1008 hPa Calm     69% 0 mm
19:04 20.3 °C 14.4 °C 1008 hPa Calm     69% 0 mm
19:09 20.1 °C 14.7 °C 1008 hPa Calm     71% 0 mm
19:14 19.7 °C 14.1 °C 1008 hPa Calm     70% 0 mm
19:19 19.5 °C 14.6 °C 1008 hPa Calm     73% 0 mm
19:24 19.2 °C 14.5 °C 1007.7 hPa Calm     74% 0 mm
19:29 18.8 °C 13.4 °C 1007.7 hPa Calm     71% 0 mm
19:34 18.4 °C 13.1 °C 1007.7 hPa Calm     71% 0 mm
19:39 18.2 °C 13.1 °C 1007.7 hPa Calm     72% 0 mm
19:44 17.9 °C 12.8 °C 1007.3 hPa Calm     72% 0 mm
19:49 17.8 °C 13.1 °C 1007.3 hPa Calm     74% 0 mm
19:54 17.6 °C 12.7 °C 1007.7 hPa Calm     73% 0 mm
19:59 17.4 °C 12.5 °C 1007.3 hPa Calm     73% 0 mm
20:04 17.2 °C 12.5 °C 1007.7 hPa Calm     74% 0 mm
20:09 17 °C 12.3 °C 1007.7 hPa Calm     74% 0 mm
20:14 16.8 °C 12.4 °C 1007.3 hPa Calm     75% 0 mm
20:19 16.6 °C 12.4 °C 1007.3 hPa Calm     76% 0 mm
20:24 16.4 °C 12.6 °C 1007.3 hPa Calm     78% 0 mm
20:29 16.2 °C 12.1 °C 1007.3 hPa Calm     77% 0 mm
20:34 15.9 °C 12.1 °C 1007.3 hPa Calm     78% 0 mm
20:39 15.8 °C 11.6 °C 1007.3 hPa Calm     76% 0 mm
20:44 15.7 °C 11.7 °C 1007.3 hPa Calm     77% 0 mm
20:49 15.6 °C 11.6 °C 1007.3 hPa Calm     77% 0 mm
20:54 15.4 °C 11.4 °C 1007.7 hPa Calm     77% 0 mm
20:59 15.3 °C 11.5 °C 1007.7 hPa Calm     78% 0 mm
21:04 15.3 °C 11.7 °C 1007.7 hPa Calm     79% 0 mm
21:09 15.2 °C 11.6 °C 1007.3 hPa Calm     79% 0 mm
21:14 15.2 °C 11.9 °C 1007.7 hPa Calm     81% 0 mm
21:19 15.1 °C 11.8 °C 1007.7 hPa Calm     81% 0 mm
21:24 15 °C 11.8 °C 1007.7 hPa Calm     81% 0 mm
21:29 15 °C 11.9 °C 1007.3 hPa Calm     82% 0 mm
21:34 15 °C 11.9 °C 1007.3 hPa Calm     82% 0 mm
21:39 14.9 °C 12.1 °C 1007.3 hPa Calm     83% 0 mm
21:44 14.8 °C 12 °C 1007.3 hPa Calm     83% 0 mm
21:49 14.8 °C 12 °C 1007.7 hPa Calm     83% 0 mm
21:55 14.8 °C 12 °C 1007.7 hPa Calm     83% 0 mm
22:04 14.7 °C 11.9 °C 1007.3 hPa Calm     83% 0 mm
22:09 14.7 °C 11.3 °C 1007 hPa Calm     80% 0 mm
22:14 14.8 °C 11.2 °C 1007 hPa Calm     79% 0 mm
22:19 15 °C 11.2 °C 1007 hPa Calm     78% 0 mm
22:24 15 °C 11.2 °C 1007 hPa Calm     78% 0 mm
22:29 15 °C 11.4 °C 1007 hPa Calm     79% 0 mm
22:34 15 °C 11.2 °C 1007 hPa Calm     78% 0 mm
22:39 15 °C 11.2 °C 1007 hPa Calm     78% 0 mm
22:44 15 °C 11.4 °C 1007 hPa Calm     79% 0 mm
22:49 15 °C 11.6 °C 1007 hPa Calm     80% 0 mm
22:54 15 °C 11.6 °C 1007 hPa Calm     80% 0 mm
22:59 15 °C 11.4 °C 1007 hPa Calm     79% 0 mm
23:04 15 °C 11.8 °C 1007 hPa Calm     81% 0 mm
23:09 15 °C 11.8 °C 1006.7 hPa Calm     81% 0 mm
23:14 14.9 °C 11.3 °C 1006.7 hPa Calm     79% 0 mm
23:19 15 °C 11.6 °C 1006.7 hPa Calm     80% 0 mm
23:24 15 °C 11.6 °C 1006.7 hPa Calm     80% 0 mm
23:29 15 °C 11.6 °C 1006.3 hPa Calm     80% 0 mm
23:34 15 °C 11.4 °C 1006.3 hPa Calm     79% 0 mm
23:39 15 °C 11.6 °C 1006.3 hPa Calm     80% 0 mm
23:44 15 °C 11.4 °C 1006.3 hPa Calm     79% 0 mm
23:49 15 °C 11.6 °C 1006.3 hPa Calm     80% 0 mm
23:54 15 °C 11.8 °C 1006.7 hPa Calm     81% 0 mm
23:59 15 °C 11.8 °C 1006.3 hPa Calm     81% 0 mm
Westford Weather
Compliments of Weather Underground

 
 
Current Radar Loop:

Copyright © WestfordWeather.net 2007-2014. All rights reserved.